Moreno Valley, California
Current Conditions -  °F | °C
As of 3:58 PM on Monday 24 Nov 2014 (Local Time) from KRIV Reporting Station
Clear Clear  
Wind Chill: 72°   Ceiling: Unl
Heat Index: 72°   Visibility: 10mi
Dew Point: 11°   Wind: 10mph
Humidity: 9%   Direction: 60°ENE
Pressure: 30.22"   Gusts: NA
Location:  33.92°N, 117.26°W
Report Text: KRIV 242358Z AUTO 06009KT 10SM CLR 22/M12 A3022 RMK AO2 SLP230 6//// T02241118 53003
Loading
Personal Weather Stations






























Interactive Weather Map New forecast layout! Learn more

10-Day Weather Forecast

Advertisements
Track Severe Weather on mobile